sensor_id;sensor_type;location;lat;lon;timestamp;P1;durP1;ratioP1;P2;durP2;ratioP2
27383;SDS011;14851;51.166;4.760;2023-12-28T00:02:16;3.22;;;2.10;;
27383;SDS011;14851;51.166;4.760;2023-12-28T00:04:41;2.78;;;2.05;;
27383;SDS011;14851;51.166;4.760;2023-12-28T00:07:07;4.38;;;1.92;;
27383;SDS011;14851;51.166;4.760;2023-12-28T00:09:33;4.13;;;2.17;;
27383;SDS011;14851;51.166;4.760;2023-12-28T00:11:59;3.15;;;1.92;;
27383;SDS011;14851;51.166;4.760;2023-12-28T00:14:25;4.20;;;2.47;;
27383;SDS011;14851;51.166;4.760;2023-12-28T00:16:53;3.72;;;2.22;;
27383;SDS011;14851;51.166;4.760;2023-12-28T00:19:20;3.80;;;2.15;;
27383;SDS011;14851;51.166;4.760;2023-12-28T00:21:46;3.65;;;2.22;;
27383;SDS011;14851;51.166;4.760;2023-12-28T00:24:12;3.50;;;2.13;;
27383;SDS011;14851;51.166;4.760;2023-12-28T00:26:40;3.85;;;2.28;;
27383;SDS011;14851;51.166;4.760;2023-12-28T00:29:06;3.55;;;1.83;;
27383;SDS011;14851;51.166;4.760;2023-12-28T00:31:32;3.70;;;2.05;;
27383;SDS011;14851;51.166;4.760;2023-12-28T00:33:59;3.42;;;2.33;;
27383;SDS011;14851;51.166;4.760;2023-12-28T00:36:27;2.97;;;2.10;;
27383;SDS011;14851;51.166;4.760;2023-12-28T00:38:52;5.07;;;2.15;;
27383;SDS011;14851;51.166;4.760;2023-12-28T00:41:19;4.10;;;2.00;;
27383;SDS011;14851;51.166;4.760;2023-12-28T00:43:47;3.65;;;1.90;;
27383;SDS011;14851;51.166;4.760;2023-12-28T00:46:13;3.17;;;1.95;;
27383;SDS011;14851;51.166;4.760;2023-12-28T00:48:39;9.30;;;2.20;;
27383;SDS011;14851;51.166;4.760;2023-12-28T00:51:07;2.90;;;2.17;;
27383;SDS011;14851;51.166;4.760;2023-12-28T00:53:32;3.88;;;1.88;;
27383;SDS011;14851;51.166;4.760;2023-12-28T00:55:58;3.63;;;2.10;;
27383;SDS011;14851;51.166;4.760;2023-12-28T00:58:24;5.28;;;1.98;;
27383;SDS011;14851;51.166;4.760;2023-12-28T01:00:50;3.22;;;2.13;;
27383;SDS011;14851;51.166;4.760;2023-12-28T01:03:18;4.30;;;2.35;;
27383;SDS011;14851;51.166;4.760;2023-12-28T01:05:45;5.15;;;1.95;;
27383;SDS011;14851;51.166;4.760;2023-12-28T01:08:12;5.28;;;2.60;;
27383;SDS011;14851;51.166;4.760;2023-12-28T01:10:41;4.55;;;2.00;;
27383;SDS011;14851;51.166;4.760;2023-12-28T01:13:07;5.97;;;2.17;;
27383;SDS011;14851;51.166;4.760;2023-12-28T01:15:33;3.58;;;1.70;;
27383;SDS011;14851;51.166;4.760;2023-12-28T01:18:01;5.00;;;1.95;;
27383;SDS011;14851;51.166;4.760;2023-12-28T01:20:27;8.18;;;2.00;;
27383;SDS011;14851;51.166;4.760;2023-12-28T01:22:55;4.25;;;2.03;;
27383;SDS011;14851;51.166;4.760;2023-12-28T01:25:20;3.28;;;1.88;;
27383;SDS011;14851;51.166;4.760;2023-12-28T01:27:47;5.55;;;2.00;;
27383;SDS011;14851;51.166;4.760;2023-12-28T01:30:14;5.50;;;2.03;;
27383;SDS011;14851;51.166;4.760;2023-12-28T01:32:41;3.95;;;1.90;;
27383;SDS011;14851;51.166;4.760;2023-12-28T01:35:07;5.13;;;2.20;;
27383;SDS011;14851;51.166;4.760;2023-12-28T01:37:33;5.03;;;1.95;;
27383;SDS011;14851;51.166;4.760;2023-12-28T01:40:01;2.80;;;1.77;;
27383;SDS011;14851;51.166;4.760;2023-12-28T01:42:29;5.38;;;1.92;;
27383;SDS011;14851;51.166;4.760;2023-12-28T01:44:56;7.50;;;1.90;;
27383;SDS011;14851;51.166;4.760;2023-12-28T01:47:23;6.43;;;2.28;;
27383;SDS011;14851;51.166;4.760;2023-12-28T01:49:51;4.78;;;2.15;;
27383;SDS011;14851;51.166;4.760;2023-12-28T01:52:17;4.07;;;1.83;;
27383;SDS011;14851;51.166;4.760;2023-12-28T01:54:43;4.63;;;1.90;;
27383;SDS011;14851;51.166;4.760;2023-12-28T01:57:10;3.92;;;1.88;;
27383;SDS011;14851;51.166;4.760;2023-12-28T01:59:37;4.28;;;1.98;;
27383;SDS011;14851;51.166;4.760;2023-12-28T02:02:06;4.57;;;1.85;;
27383;SDS011;14851;51.166;4.760;2023-12-28T02:04:34;2.55;;;1.38;;
27383;SDS011;14851;51.166;4.760;2023-12-28T02:07:00;3.67;;;1.90;;
27383;SDS011;14851;51.166;4.760;2023-12-28T02:09:29;4.65;;;2.15;;
27383;SDS011;14851;51.166;4.760;2023-12-28T02:11:57;4.72;;;2.30;;
27383;SDS011;14851;51.166;4.760;2023-12-28T02:14:23;5.97;;;2.65;;
27383;SDS011;14851;51.166;4.760;2023-12-28T02:17:15;3.25;;;2.03;;
27383;SDS011;14851;51.166;4.760;2023-12-28T02:19:54;3.85;;;1.70;;
27383;SDS011;14851;51.166;4.760;2023-12-28T02:22:24;2.70;;;1.70;;
27383;SDS011;14851;51.166;4.760;2023-12-28T02:25:10;2.53;;;1.73;;
27383;SDS011;14851;51.166;4.760;2023-12-28T02:27:40;4.07;;;1.98;;
27383;SDS011;14851;51.166;4.760;2023-12-28T02:30:08;3.60;;;2.05;;
27383;SDS011;14851;51.166;4.760;2023-12-28T02:32:40;4.72;;;1.80;;
27383;SDS011;14851;51.166;4.760;2023-12-28T02:35:18;3.28;;;1.90;;
27383;SDS011;14851;51.166;4.760;2023-12-28T02:37:51;4.35;;;1.73;;
27383;SDS011;14851;51.166;4.760;2023-12-28T02:40:22;4.78;;;1.58;;
27383;SDS011;14851;51.166;4.760;2023-12-28T02:42:51;6.22;;;2.05;;
27383;SDS011;14851;51.166;4.760;2023-12-28T02:45:18;6.40;;;2.15;;
27383;SDS011;14851;51.166;4.760;2023-12-28T02:47:44;4.88;;;1.98;;
27383;SDS011;14851;51.166;4.760;2023-12-28T02:50:11;4.13;;;1.80;;
27383;SDS011;14851;51.166;4.760;2023-12-28T02:52:36;7.60;;;1.73;;
27383;SDS011;14851;51.166;4.760;2023-12-28T02:55:03;8.10;;;1.67;;
27383;SDS011;14851;51.166;4.760;2023-12-28T02:57:29;5.60;;;1.90;;
27383;SDS011;14851;51.166;4.760;2023-12-28T02:59:55;3.15;;;1.77;;
27383;SDS011;14851;51.166;4.760;2023-12-28T03:02:22;3.78;;;1.80;;
27383;SDS011;14851;51.166;4.760;2023-12-28T03:04:49;7.47;;;2.20;;
27383;SDS011;14851;51.166;4.760;2023-12-28T03:07:14;5.00;;;2.03;;
27383;SDS011;14851;51.166;4.760;2023-12-28T03:09:40;3.53;;;1.60;;
27383;SDS011;14851;51.166;4.760;2023-12-28T03:12:06;7.00;;;1.70;;
27383;SDS011;14851;51.166;4.760;2023-12-28T03:14:32;3.55;;;1.60;;
27383;SDS011;14851;51.166;4.760;2023-12-28T03:16:58;5.32;;;1.45;;
27383;SDS011;14851;51.166;4.760;2023-12-28T03:19:24;3.88;;;1.58;;
27383;SDS011;14851;51.166;4.760;2023-12-28T03:21:50;5.53;;;1.70;;
27383;SDS011;14851;51.166;4.760;2023-12-28T03:24:16;5.38;;;1.88;;
27383;SDS011;14851;51.166;4.760;2023-12-28T03:26:42;4.55;;;1.80;;
27383;SDS011;14851;51.166;4.760;2023-12-28T03:29:10;5.18;;;1.50;;
27383;SDS011;14851;51.166;4.760;2023-12-28T03:31:39;5.05;;;2.03;;
27383;SDS011;14851;51.166;4.760;2023-12-28T03:34:05;5.35;;;1.92;;
27383;SDS011;14851;51.166;4.760;2023-12-28T03:36:34;5.78;;;1.67;;
27383;SDS011;14851;51.166;4.760;2023-12-28T03:39:00;5.72;;;1.77;;
27383;SDS011;14851;51.166;4.760;2023-12-28T03:41:31;4.78;;;1.60;;
27383;SDS011;14851;51.166;4.760;2023-12-28T03:44:00;6.15;;;1.70;;
27383;SDS011;14851;51.166;4.760;2023-12-28T03:46:26;7.85;;;2.00;;
27383;SDS011;14851;51.166;4.760;2023-12-28T03:48:54;6.35;;;1.83;;
27383;SDS011;14851;51.166;4.760;2023-12-28T03:51:20;5.32;;;1.63;;
27383;SDS011;14851;51.166;4.760;2023-12-28T03:53:46;10.00;;;2.40;;
27383;SDS011;14851;51.166;4.760;2023-12-28T03:56:21;7.68;;;1.75;;
27383;SDS011;14851;51.166;4.760;2023-12-28T03:58:48;6.07;;;1.80;;
27383;SDS011;14851;51.166;4.760;2023-12-28T04:01:15;7.13;;;1.80;;
27383;SDS011;14851;51.166;4.760;2023-12-28T04:03:46;7.28;;;1.85;;
27383;SDS011;14851;51.166;4.760;2023-12-28T04:06:14;5.03;;;1.80;;
27383;SDS011;14851;51.166;4.760;2023-12-28T04:08:40;6.00;;;1.80;;
27383;SDS011;14851;51.166;4.760;2023-12-28T04:11:07;7.28;;;2.25;;
27383;SDS011;14851;51.166;4.760;2023-12-28T04:13:34;7.97;;;1.95;;
27383;SDS011;14851;51.166;4.760;2023-12-28T04:16:03;7.88;;;1.83;;
27383;SDS011;14851;51.166;4.760;2023-12-28T04:18:32;7.68;;;2.17;;
27383;SDS011;14851;51.166;4.760;2023-12-28T04:20:58;14.82;;;4.63;;
27383;SDS011;14851;51.166;4.760;2023-12-28T04:23:26;23.13;;;9.38;;
27383;SDS011;14851;51.166;4.760;2023-12-28T04:25:52;7.68;;;2.17;;
27383;SDS011;14851;51.166;4.760;2023-12-28T04:28:18;14.25;;;7.68;;
27383;SDS011;14851;51.166;4.760;2023-12-28T04:30:44;9.48;;;3.88;;
27383;SDS011;14851;51.166;4.760;2023-12-28T04:33:16;7.13;;;2.17;;
27383;SDS011;14851;51.166;4.760;2023-12-28T04:35:44;10.40;;;3.00;;
27383;SDS011;14851;51.166;4.760;2023-12-28T04:38:13;7.18;;;2.08;;
27383;SDS011;14851;51.166;4.760;2023-12-28T04:40:38;8.82;;;1.73;;
27383;SDS011;14851;51.166;4.760;2023-12-28T04:43:04;6.03;;;2.03;;
27383;SDS011;14851;51.166;4.760;2023-12-28T04:45:33;8.45;;;1.75;;
27383;SDS011;14851;51.166;4.760;2023-12-28T04:47:59;8.75;;;2.05;;
27383;SDS011;14851;51.166;4.760;2023-12-28T04:50:29;8.55;;;3.38;;
27383;SDS011;14851;51.166;4.760;2023-12-28T04:52:57;9.25;;;2.85;;
27383;SDS011;14851;51.166;4.760;2023-12-28T04:55:25;8.75;;;1.60;;
27383;SDS011;14851;51.166;4.760;2023-12-28T04:57:53;9.65;;;2.00;;
27383;SDS011;14851;51.166;4.760;2023-12-28T05:00:23;9.63;;;2.20;;
27383;SDS011;14851;51.166;4.760;2023-12-28T05:02:49;7.90;;;1.80;;
27383;SDS011;14851;51.166;4.760;2023-12-28T05:05:15;10.95;;;3.17;;
27383;SDS011;14851;51.166;4.760;2023-12-28T05:07:41;12.10;;;3.42;;
27383;SDS011;14851;51.166;4.760;2023-12-28T05:10:08;8.27;;;2.30;;
27383;SDS011;14851;51.166;4.760;2023-12-28T05:12:36;7.20;;;1.83;;
27383;SDS011;14851;51.166;4.760;2023-12-28T05:15:02;7.20;;;1.83;;
27383;SDS011;14851;51.166;4.760;2023-12-28T05:17:28;11.30;;;2.00;;
27383;SDS011;14851;51.166;4.760;2023-12-28T05:19:54;11.98;;;2.47;;
27383;SDS011;14851;51.166;4.760;2023-12-28T05:22:21;5.90;;;1.67;;
27383;SDS011;14851;51.166;4.760;2023-12-28T05:24:52;8.80;;;1.90;;
27383;SDS011;14851;51.166;4.760;2023-12-28T05:27:20;11.25;;;2.58;;
27383;SDS011;14851;51.166;4.760;2023-12-28T05:29:49;8.23;;;2.33;;
27383;SDS011;14851;51.166;4.760;2023-12-28T05:32:14;8.40;;;2.30;;
27383;SDS011;14851;51.166;4.760;2023-12-28T05:34:40;9.35;;;2.33;;
27383;SDS011;14851;51.166;4.760;2023-12-28T05:37:06;6.88;;;1.73;;
27383;SDS011;14851;51.166;4.760;2023-12-28T05:39:32;11.00;;;2.42;;
27383;SDS011;14851;51.166;4.760;2023-12-28T05:41:57;10.88;;;2.30;;
27383;SDS011;14851;51.166;4.760;2023-12-28T05:44:24;10.75;;;2.33;;
27383;SDS011;14851;51.166;4.760;2023-12-28T05:46:51;12.70;;;3.15;;
27383;SDS011;14851;51.166;4.760;2023-12-28T05:49:18;12.32;;;2.38;;
27383;SDS011;14851;51.166;4.760;2023-12-28T05:51:43;13.50;;;2.08;;
27383;SDS011;14851;51.166;4.760;2023-12-28T05:54:11;12.30;;;2.88;;
27383;SDS011;14851;51.166;4.760;2023-12-28T05:56:37;8.65;;;2.55;;
27383;SDS011;14851;51.166;4.760;2023-12-28T05:59:03;8.55;;;2.33;;
27383;SDS011;14851;51.166;4.760;2023-12-28T06:01:29;11.93;;;2.67;;
27383;SDS011;14851;51.166;4.760;2023-12-28T06:03:54;8.70;;;1.98;;
27383;SDS011;14851;51.166;4.760;2023-12-28T06:06:26;9.63;;;2.47;;
27383;SDS011;14851;51.166;4.760;2023-12-28T06:08:54;12.30;;;1.98;;
27383;SDS011;14851;51.166;4.760;2023-12-28T06:11:20;7.45;;;1.88;;
27383;SDS011;14851;51.166;4.760;2023-12-28T06:13:49;8.27;;;2.35;;
27383;SDS011;14851;51.166;4.760;2023-12-28T06:16:15;9.73;;;2.53;;
27383;SDS011;14851;51.166;4.760;2023-12-28T06:18:40;8.73;;;1.92;;
27383;SDS011;14851;51.166;4.760;2023-12-28T06:21:09;9.50;;;2.03;;
27383;SDS011;14851;51.166;4.760;2023-12-28T06:23:35;12.45;;;2.05;;
27383;SDS011;14851;51.166;4.760;2023-12-28T06:26:06;13.48;;;2.30;;
27383;SDS011;14851;51.166;4.760;2023-12-28T06:28:32;8.73;;;2.33;;
27383;SDS011;14851;51.166;4.760;2023-12-28T06:30:58;13.77;;;3.15;;
27383;SDS011;14851;51.166;4.760;2023-12-28T06:33:28;8.07;;;1.90;;
27383;SDS011;14851;51.166;4.760;2023-12-28T06:35:54;7.57;;;2.33;;
27383;SDS011;14851;51.166;4.760;2023-12-28T06:38:20;10.18;;;2.72;;
27383;SDS011;14851;51.166;4.760;2023-12-28T06:40:46;12.48;;;2.60;;
27383;SDS011;14851;51.166;4.760;2023-12-28T06:43:12;10.23;;;2.00;;
27383;SDS011;14851;51.166;4.760;2023-12-28T06:45:40;10.82;;;2.13;;
27383;SDS011;14851;51.166;4.760;2023-12-28T06:48:06;9.27;;;2.58;;
27383;SDS011;14851;51.166;4.760;2023-12-28T06:50:32;10.32;;;2.03;;
27383;SDS011;14851;51.166;4.760;2023-12-28T06:53:00;13.18;;;3.00;;
27383;SDS011;14851;51.166;4.760;2023-12-28T06:55:27;13.05;;;2.15;;
27383;SDS011;14851;51.166;4.760;2023-12-28T06:57:53;13.55;;;2.38;;
27383;SDS011;14851;51.166;4.760;2023-12-28T07:00:18;13.93;;;2.85;;
27383;SDS011;14851;51.166;4.760;2023-12-28T07:02:44;13.13;;;2.33;;
27383;SDS011;14851;51.166;4.760;2023-12-28T07:05:11;13.30;;;2.45;;
27383;SDS011;14851;51.166;4.760;2023-12-28T07:07:39;14.98;;;2.70;;
27383;SDS011;14851;51.166;4.760;2023-12-28T07:10:04;11.82;;;2.58;;
27383;SDS011;14851;51.166;4.760;2023-12-28T07:12:31;13.57;;;2.45;;
27383;SDS011;14851;51.166;4.760;2023-12-28T07:14:59;10.73;;;1.88;;
27383;SDS011;14851;51.166;4.760;2023-12-28T07:17:25;11.85;;;2.60;;
27383;SDS011;14851;51.166;4.760;2023-12-28T07:19:51;12.35;;;2.20;;
27383;SDS011;14851;51.166;4.760;2023-12-28T07:22:17;12.05;;;2.22;;
27383;SDS011;14851;51.166;4.760;2023-12-28T07:24:43;10.35;;;2.30;;
27383;SDS011;14851;51.166;4.760;2023-12-28T07:27:09;12.90;;;2.72;;
27383;SDS011;14851;51.166;4.760;2023-12-28T07:29:35;10.57;;;1.70;;
27383;SDS011;14851;51.166;4.760;2023-12-28T07:32:01;11.93;;;2.00;;
27383;SDS011;14851;51.166;4.760;2023-12-28T07:34:26;18.98;;;2.88;;
27383;SDS011;14851;51.166;4.760;2023-12-28T07:36:54;13.68;;;2.58;;
27383;SDS011;14851;51.166;4.760;2023-12-28T07:39:20;13.43;;;2.42;;
27383;SDS011;14851;51.166;4.760;2023-12-28T07:41:46;15.43;;;2.97;;
27383;SDS011;14851;51.166;4.760;2023-12-28T07:44:11;8.70;;;2.22;;
27383;SDS011;14851;51.166;4.760;2023-12-28T07:46:40;16.55;;;2.47;;
27383;SDS011;14851;51.166;4.760;2023-12-28T07:49:05;12.25;;;2.17;;
27383;SDS011;14851;51.166;4.760;2023-12-28T07:51:31;11.85;;;2.70;;
27383;SDS011;14851;51.166;4.760;2023-12-28T07:53:57;15.73;;;3.10;;
27383;SDS011;14851;51.166;4.760;2023-12-28T07:56:25;11.43;;;2.45;;
27383;SDS011;14851;51.166;4.760;2023-12-28T07:58:51;13.55;;;2.40;;
27383;SDS011;14851;51.166;4.760;2023-12-28T08:01:17;7.70;;;1.90;;
27383;SDS011;14851;51.166;4.760;2023-12-28T08:03:47;12.20;;;3.03;;
27383;SDS011;14851;51.166;4.760;2023-12-28T08:06:16;13.40;;;2.15;;
27383;SDS011;14851;51.166;4.760;2023-12-28T08:08:46;9.43;;;2.08;;
27383;SDS011;14851;51.166;4.760;2023-12-28T08:11:12;12.82;;;2.22;;
27383;SDS011;14851;51.166;4.760;2023-12-28T08:13:38;13.45;;;2.38;;
27383;SDS011;14851;51.166;4.760;2023-12-28T08:16:04;11.07;;;2.13;;
27383;SDS011;14851;51.166;4.760;2023-12-28T08:18:30;17.10;;;2.95;;
27383;SDS011;14851;51.166;4.760;2023-12-28T08:20:57;11.13;;;2.30;;
27383;SDS011;14851;51.166;4.760;2023-12-28T08:23:24;12.73;;;2.47;;
27383;SDS011;14851;51.166;4.760;2023-12-28T08:25:50;15.90;;;2.45;;
27383;SDS011;14851;51.166;4.760;2023-12-28T08:28:15;11.30;;;2.63;;
27383;SDS011;14851;51.166;4.760;2023-12-28T08:30:42;11.57;;;2.67;;
27383;SDS011;14851;51.166;4.760;2023-12-28T08:33:08;7.97;;;2.08;;
27383;SDS011;14851;51.166;4.760;2023-12-28T08:35:36;9.27;;;2.28;;
27383;SDS011;14851;51.166;4.760;2023-12-28T08:38:04;14.73;;;2.50;;
27383;SDS011;14851;51.166;4.760;2023-12-28T08:40:31;16.90;;;3.30;;
27383;SDS011;14851;51.166;4.760;2023-12-28T08:42:57;12.43;;;2.60;;
27383;SDS011;14851;51.166;4.760;2023-12-28T08:45:23;12.43;;;2.88;;
27383;SDS011;14851;51.166;4.760;2023-12-28T08:47:52;11.05;;;2.50;;
27383;SDS011;14851;51.166;4.760;2023-12-28T08:50:20;11.90;;;2.47;;
27383;SDS011;14851;51.166;4.760;2023-12-28T08:52:46;13.88;;;3.05;;
27383;SDS011;14851;51.166;4.760;2023-12-28T08:55:11;16.60;;;2.55;;
27383;SDS011;14851;51.166;4.760;2023-12-28T08:57:40;15.00;;;3.50;;
27383;SDS011;14851;51.166;4.760;2023-12-28T09:00:05;14.90;;;2.95;;
27383;SDS011;14851;51.166;4.760;2023-12-28T09:02:32;14.43;;;3.15;;
27383;SDS011;14851;51.166;4.760;2023-12-28T09:04:58;16.10;;;2.80;;
27383;SDS011;14851;51.166;4.760;2023-12-28T09:07:24;13.60;;;2.60;;
27383;SDS011;14851;51.166;4.760;2023-12-28T09:09:50;12.85;;;2.42;;
27383;SDS011;14851;51.166;4.760;2023-12-28T09:12:16;13.10;;;2.85;;
27383;SDS011;14851;51.166;4.760;2023-12-28T09:14:41;15.07;;;2.63;;
27383;SDS011;14851;51.166;4.760;2023-12-28T09:17:12;14.57;;;2.65;;
27383;SDS011;14851;51.166;4.760;2023-12-28T09:19:40;14.15;;;2.72;;
27383;SDS011;14851;51.166;4.760;2023-12-28T09:22:06;14.60;;;2.25;;
27383;SDS011;14851;51.166;4.760;2023-12-28T09:24:32;16.02;;;2.88;;
27383;SDS011;14851;51.166;4.760;2023-12-28T09:26:58;13.43;;;2.78;;
27383;SDS011;14851;51.166;4.760;2023-12-28T09:29:24;12.52;;;2.28;;
27383;SDS011;14851;51.166;4.760;2023-12-28T09:31:54;15.18;;;2.53;;
27383;SDS011;14851;51.166;4.760;2023-12-28T09:34:20;15.18;;;2.75;;
27383;SDS011;14851;51.166;4.760;2023-12-28T09:36:47;13.07;;;2.35;;
27383;SDS011;14851;51.166;4.760;2023-12-28T09:39:13;12.07;;;2.20;;
27383;SDS011;14851;51.166;4.760;2023-12-28T09:41:39;15.15;;;3.08;;
27383;SDS011;14851;51.166;4.760;2023-12-28T09:44:11;17.33;;;2.67;;
27383;SDS011;14851;51.166;4.760;2023-12-28T09:46:41;12.70;;;3.37;;
27383;SDS011;14851;51.166;4.760;2023-12-28T09:49:08;11.60;;;2.10;;
27383;SDS011;14851;51.166;4.760;2023-12-28T09:51:35;12.10;;;2.80;;
27383;SDS011;14851;51.166;4.760;2023-12-28T09:54:02;12.55;;;2.10;;
27383;SDS011;14851;51.166;4.760;2023-12-28T09:56:29;14.65;;;2.70;;
27383;SDS011;14851;51.166;4.760;2023-12-28T09:58:57;15.27;;;2.80;;
27383;SDS011;14851;51.166;4.760;2023-12-28T10:01:30;15.07;;;2.33;;
27383;SDS011;14851;51.166;4.760;2023-12-28T10:03:56;15.18;;;2.95;;
27383;SDS011;14851;51.166;4.760;2023-12-28T10:06:22;15.57;;;2.70;;
27383;SDS011;14851;51.166;4.760;2023-12-28T10:08:48;12.25;;;3.00;;
27383;SDS011;14851;51.166;4.760;2023-12-28T10:11:18;18.52;;;2.70;;
27383;SDS011;14851;51.166;4.760;2023-12-28T10:13:44;11.38;;;3.13;;
27383;SDS011;14851;51.166;4.760;2023-12-28T10:16:15;14.90;;;2.65;;
27383;SDS011;14851;51.166;4.760;2023-12-28T10:18:46;21.10;;;3.53;;
27383;SDS011;14851;51.166;4.760;2023-12-28T10:21:13;16.05;;;2.55;;
27383;SDS011;14851;51.166;4.760;2023-12-28T10:23:41;17.05;;;3.72;;
27383;SDS011;14851;51.166;4.760;2023-12-28T10:26:07;20.48;;;2.72;;
27383;SDS011;14851;51.166;4.760;2023-12-28T10:28:36;13.55;;;2.88;;
27383;SDS011;14851;51.166;4.760;2023-12-28T10:31:05;15.68;;;2.58;;
27383;SDS011;14851;51.166;4.760;2023-12-28T10:33:38;14.23;;;2.20;;
27383;SDS011;14851;51.166;4.760;2023-12-28T10:36:05;17.27;;;2.65;;
27383;SDS011;14851;51.166;4.760;2023-12-28T10:38:36;13.40;;;2.30;;
27383;SDS011;14851;51.166;4.760;2023-12-28T10:41:06;15.55;;;2.88;;
27383;SDS011;14851;51.166;4.760;2023-12-28T10:46:29;16.98;;;3.58;;
27383;SDS011;14851;51.166;4.760;2023-12-28T10:49:01;14.18;;;3.47;;
27383;SDS011;14851;51.166;4.760;2023-12-28T10:51:37;16.92;;;3.03;;
27383;SDS011;14851;51.166;4.760;2023-12-28T10:56:59;12.25;;;2.60;;
27383;SDS011;14851;51.166;4.760;2023-12-28T11:02:14;13.23;;;2.67;;
27383;SDS011;14851;51.166;4.760;2023-12-28T11:04:50;17.88;;;3.65;;
27383;SDS011;14851;51.166;4.760;2023-12-28T11:07:18;20.77;;;3.15;;
27383;SDS011;14851;51.166;4.760;2023-12-28T11:09:45;15.65;;;2.88;;
27383;SDS011;14851;51.166;4.760;2023-12-28T11:12:15;15.65;;;2.55;;
27383;SDS011;14851;51.166;4.760;2023-12-28T11:14:45;15.60;;;2.33;;
27383;SDS011;14851;51.166;4.760;2023-12-28T11:17:17;14.32;;;3.28;;
27383;SDS011;14851;51.166;4.760;2023-12-28T11:19:45;15.18;;;3.90;;
27383;SDS011;14851;51.166;4.760;2023-12-28T11:22:12;15.35;;;2.83;;
27383;SDS011;14851;51.166;4.760;2023-12-28T11:24:40;18.52;;;4.15;;
27383;SDS011;14851;51.166;4.760;2023-12-28T11:27:09;13.32;;;3.17;;
27383;SDS011;14851;51.166;4.760;2023-12-28T11:29:35;16.30;;;2.78;;
27383;SDS011;14851;51.166;4.760;2023-12-28T11:32:00;19.35;;;4.20;;
27383;SDS011;14851;51.166;4.760;2023-12-28T11:34:32;16.15;;;3.30;;
27383;SDS011;14851;51.166;4.760;2023-12-28T11:37:08;18.95;;;3.17;;
27383;SDS011;14851;51.166;4.760;2023-12-28T11:39:41;16.08;;;2.83;;
27383;SDS011;14851;51.166;4.760;2023-12-28T11:42:19;18.77;;;3.20;;
27383;SDS011;14851;51.166;4.760;2023-12-28T11:44:46;14.13;;;3.15;;
27383;SDS011;14851;51.166;4.760;2023-12-28T11:47:15;12.10;;;2.10;;
27383;SDS011;14851;51.166;4.760;2023-12-28T11:49:48;15.45;;;2.97;;
27383;SDS011;14851;51.166;4.760;2023-12-28T11:52:28;12.00;;;3.22;;
27383;SDS011;14851;51.166;4.760;2023-12-28T11:54:59;15.68;;;3.35;;
27383;SDS011;14851;51.166;4.760;2023-12-28T11:57:25;16.65;;;3.30;;
27383;SDS011;14851;51.166;4.760;2023-12-28T11:59:58;15.48;;;2.97;;
27383;SDS011;14851;51.166;4.760;2023-12-28T12:02:26;15.55;;;2.85;;
27383;SDS011;14851;51.166;4.760;2023-12-28T12:04:55;12.98;;;2.55;;
27383;SDS011;14851;51.166;4.760;2023-12-28T12:07:23;15.35;;;2.70;;
27383;SDS011;14851;51.166;4.760;2023-12-28T12:09:54;17.58;;;3.28;;
27383;SDS011;14851;51.166;4.760;2023-12-28T12:12:26;16.17;;;2.70;;
27383;SDS011;14851;51.166;4.760;2023-12-28T12:14:53;16.02;;;3.58;;
27383;SDS011;14851;51.166;4.760;2023-12-28T12:17:19;12.07;;;2.55;;
27383;SDS011;14851;51.166;4.760;2023-12-28T12:19:45;18.05;;;2.83;;
27383;SDS011;14851;51.166;4.760;2023-12-28T12:22:14;10.63;;;2.53;;
27383;SDS011;14851;51.166;4.760;2023-12-28T12:24:46;19.55;;;3.67;;
27383;SDS011;14851;51.166;4.760;2023-12-28T12:27:16;13.43;;;3.00;;
27383;SDS011;14851;51.166;4.760;2023-12-28T12:29:45;19.33;;;3.20;;
27383;SDS011;14851;51.166;4.760;2023-12-28T12:32:11;20.30;;;3.50;;
27383;SDS011;14851;51.166;4.760;2023-12-28T12:34:37;15.93;;;3.58;;
27383;SDS011;14851;51.166;4.760;2023-12-28T12:39:33;18.55;;;3.22;;
27383;SDS011;14851;51.166;4.760;2023-12-28T12:42:01;17.27;;;3.28;;
27383;SDS011;14851;51.166;4.760;2023-12-28T12:44:32;17.00;;;3.20;;
27383;SDS011;14851;51.166;4.760;2023-12-28T12:46:58;13.95;;;2.58;;
27383;SDS011;14851;51.166;4.760;2023-12-28T12:49:25;15.35;;;2.25;;
27383;SDS011;14851;51.166;4.760;2023-12-28T12:51:51;16.38;;;2.75;;
27383;SDS011;14851;51.166;4.760;2023-12-28T12:54:18;16.42;;;3.00;;
27383;SDS011;14851;51.166;4.760;2023-12-28T12:56:44;15.10;;;4.03;;
27383;SDS011;14851;51.166;4.760;2023-12-28T12:59:10;19.38;;;4.38;;
27383;SDS011;14851;51.166;4.760;2023-12-28T13:04:07;18.83;;;4.03;;
27383;SDS011;14851;51.166;4.760;2023-12-28T13:06:32;19.88;;;4.47;;
27383;SDS011;14851;51.166;4.760;2023-12-28T13:08:58;15.90;;;3.40;;
27383;SDS011;14851;51.166;4.760;2023-12-28T13:11:28;11.55;;;2.80;;
27383;SDS011;14851;51.166;4.760;2023-12-28T13:13:53;16.50;;;3.17;;
27383;SDS011;14851;51.166;4.760;2023-12-28T13:16:22;13.02;;;3.28;;
27383;SDS011;14851;51.166;4.760;2023-12-28T13:18:48;12.38;;;2.63;;
27383;SDS011;14851;51.166;4.760;2023-12-28T13:21:14;14.00;;;3.05;;
27383;SDS011;14851;51.166;4.760;2023-12-28T13:23:40;12.90;;;3.85;;
27383;SDS011;14851;51.166;4.760;2023-12-28T13:26:06;14.95;;;2.70;;
27383;SDS011;14851;51.166;4.760;2023-12-28T13:28:34;19.02;;;3.58;;
27383;SDS011;14851;51.166;4.760;2023-12-28T13:31:00;15.18;;;3.33;;
27383;SDS011;14851;51.166;4.760;2023-12-28T13:33:26;12.98;;;2.78;;
27383;SDS011;14851;51.166;4.760;2023-12-28T13:35:54;12.45;;;2.95;;
27383;SDS011;14851;51.166;4.760;2023-12-28T13:38:20;17.38;;;3.15;;
27383;SDS011;14851;51.166;4.760;2023-12-28T13:40:46;17.02;;;3.22;;
27383;SDS011;14851;51.166;4.760;2023-12-28T13:43:12;11.93;;;2.80;;
27383;SDS011;14851;51.166;4.760;2023-12-28T13:45:38;15.60;;;3.10;;
27383;SDS011;14851;51.166;4.760;2023-12-28T13:48:04;12.48;;;2.60;;
27383;SDS011;14851;51.166;4.760;2023-12-28T13:50:30;14.60;;;2.47;;
27383;SDS011;14851;51.166;4.760;2023-12-28T13:53:01;19.25;;;3.00;;
27383;SDS011;14851;51.166;4.760;2023-12-28T13:55:31;14.60;;;2.95;;
27383;SDS011;14851;51.166;4.760;2023-12-28T13:57:58;14.82;;;2.58;;
27383;SDS011;14851;51.166;4.760;2023-12-28T14:00:24;14.07;;;2.67;;
27383;SDS011;14851;51.166;4.760;2023-12-28T14:02:50;10.07;;;2.40;;
27383;SDS011;14851;51.166;4.760;2023-12-28T14:05:20;12.25;;;2.83;;
27383;SDS011;14851;51.166;4.760;2023-12-28T14:07:46;14.85;;;3.20;;
27383;SDS011;14851;51.166;4.760;2023-12-28T14:10:12;15.77;;;2.85;;
27383;SDS011;14851;51.166;4.760;2023-12-28T14:12:38;20.83;;;3.08;;
27383;SDS011;14851;51.166;4.760;2023-12-28T14:15:06;24.77;;;5.95;;
27383;SDS011;14851;51.166;4.760;2023-12-28T14:17:33;15.25;;;3.15;;
27383;SDS011;14851;51.166;4.760;2023-12-28T14:20:01;10.52;;;2.40;;
27383;SDS011;14851;51.166;4.760;2023-12-28T14:22:28;16.27;;;3.22;;
27383;SDS011;14851;51.166;4.760;2023-12-28T14:24:54;15.93;;;2.45;;
27383;SDS011;14851;51.166;4.760;2023-12-28T14:27:20;17.73;;;2.47;;
27383;SDS011;14851;51.166;4.760;2023-12-28T14:29:46;12.90;;;2.95;;
27383;SDS011;14851;51.166;4.760;2023-12-28T14:32:13;14.32;;;2.47;;
27383;SDS011;14851;51.166;4.760;2023-12-28T14:34:42;15.77;;;2.85;;
27383;SDS011;14851;51.166;4.760;2023-12-28T14:37:08;13.38;;;2.80;;
27383;SDS011;14851;51.166;4.760;2023-12-28T14:39:34;19.27;;;4.85;;
27383;SDS011;14851;51.166;4.760;2023-12-28T14:41:59;12.88;;;3.05;;
27383;SDS011;14851;51.166;4.760;2023-12-28T14:44:28;13.50;;;2.75;;
27383;SDS011;14851;51.166;4.760;2023-12-28T14:46:54;13.55;;;3.03;;
27383;SDS011;14851;51.166;4.760;2023-12-28T14:49:27;16.60;;;2.92;;
27383;SDS011;14851;51.166;4.760;2023-12-28T14:51:55;15.75;;;3.50;;
27383;SDS011;14851;51.166;4.760;2023-12-28T14:54:23;14.57;;;2.83;;
27383;SDS011;14851;51.166;4.760;2023-12-28T14:56:49;12.43;;;2.70;;